首页
METAR-TAF:

METAR-TAF

机场 :

Julian Carroll Airport

杰克逊, 肯塔基州, 美国

纬度: 37-35-29N, 经度: 083-18-52W, 海拔: 421米

当前天气观测

该预报发布于53分钟前的20:53 UTC
风速14节,风向西转西南,有时为28节阵风,在南转西南西转西北之间变化
温度 23°C
湿度 27%
气压 1015 hPa
能見度: 16.1公里
天空无云

METAR: KJKL 292053Z AUTO 24014G28KT 210V300 10SM CLR 23/03 A2996 RMK AO2 PK WND 22029/2037 SLP131 T02330028 53013

时间: 17:46 (21:46 UTC)

预报

该预报发布于4小时和26分钟前的17:20 UTC
预报有效从29日的 18点(UTC)到 30日的 18点(UTC)
风速15节,风向西转西南,有时为30节阵风
能見度: 10公里
天空无云
从 29日的 2300点(UTC)
风速10节,风向西转西南,有时为20节阵风
能見度: 10公里
天空无云
从 30日的 0000点(UTC)
风速9节,风向西转西南
能見度: 10公里
天空无云
从 30日的 1400点(UTC)
风速9节,风向西,有时为18节阵风
能見度: 10公里
天空无云

TAF: KJKL 291720Z 2918/3018 24015G30KT P6SM SKC FM292300 25010G20KT P6SM SKC FM300000 25009KT P6SM SKC FM301400 26009G18KT P6SM SKC

超过4000个机场的气象观测和天气预报(METAR&TAF报告)。

可查询的气象台以黄色和红色小点在地图上表示。

将鼠标移到小点上方,可查看气象台名称。

然后点击查看天气观测和预报。

如需切换地图:点击带黑十字的绿色按钮放大地图;点击带横线的绿色按钮缩小地图;或者点击绿色箭头查看邻近地区的地图。


METAR-TAF: